Sabinal, Texas
Current Conditions -  °F | °C
As of 8:55 PM on Friday 19 Dec 2014 (Local Time) from KUVA Reporting Station
Clear Clear  
Wind Chill: 37°   Ceiling: Unl
Heat Index: 42°   Visibility: 10mi
Dew Point: 38°   Wind: 7mph
Humidity: 87%   Direction: 70°ENE
Pressure: 30.14"   Gusts: NA
Location:  29.32°N, 99.47°W
Report Text: KUVA 200255Z AUTO 07006KT 10SM CLR 05/03 A3014 RMK AO2 T00540034
Loading
Personal Weather Stations






























Interactive Weather Map New forecast layout! Learn more

10-Day Weather Forecast

Advertisements
Track Severe Weather on mobile